createdAt,value
2023-02-11T00:00:57.217Z,103323.59
2023-02-11T00:03:23.678Z,103320.94
2023-02-11T00:06:06.038Z,103318.88
2023-02-11T00:08:32.431Z,103319.22
2023-02-11T00:10:58.962Z,103315.69
2023-02-11T00:13:25.912Z,103321.16
2023-02-11T00:15:52.810Z,103328.34
2023-02-11T00:18:19.319Z,103319.16
2023-02-11T00:20:45.715Z,103321.00
2023-02-11T00:23:12.255Z,103326.34
2023-02-11T00:25:40.843Z,103329.88
2023-02-11T00:28:07.709Z,103327.41
2023-02-11T00:30:34.575Z,103336.31
2023-02-11T00:33:01.359Z,103343.28
2023-02-11T00:35:27.762Z,103340.59
2023-02-11T00:37:55.304Z,103339.59
2023-02-11T00:40:22.065Z,103339.25
2023-02-11T00:42:48.598Z,103334.59
2023-02-11T00:45:15.005Z,103334.72
2023-02-11T00:47:41.460Z,103336.31
2023-02-11T00:50:08.335Z,103326.47
2023-02-11T00:52:34.727Z,103321.97
2023-02-11T00:55:02.181Z,103315.13
2023-02-11T00:57:28.617Z,103306.22
2023-02-11T00:59:55.038Z,103291.84
2023-02-11T01:02:21.980Z,103284.78
2023-02-11T01:04:48.489Z,103282.09
2023-02-11T01:07:14.949Z,103279.25
2023-02-11T01:09:41.419Z,103276.56
2023-02-11T01:12:07.854Z,103283.53
2023-02-11T01:14:34.299Z,103282.66
2023-02-11T01:17:00.722Z,103297.66
2023-02-11T01:19:27.152Z,103293.47
2023-02-11T01:21:53.542Z,103306.88
2023-02-11T01:24:21.705Z,103321.75
2023-02-11T01:26:48.107Z,103327.13
2023-02-11T01:29:14.489Z,103326.19
2023-02-11T01:31:41.064Z,103327.97
2023-02-11T01:34:07.527Z,103318.22
2023-02-11T01:36:36.659Z,103313.97
2023-02-11T01:39:03.739Z,103311.28
2023-02-11T01:41:30.312Z,103307.97
2023-02-11T01:43:57.544Z,103314.19
2023-02-11T01:46:29.710Z,103305.19
2023-02-11T01:49:03.118Z,103309.81
2023-02-11T01:51:36.848Z,103312.38
2023-02-11T01:54:25.128Z,103300.78
2023-02-11T01:57:13.932Z,103302.84
2023-02-11T01:59:47.414Z,103300.88
2023-02-11T02:02:16.568Z,103298.47
2023-02-11T02:05:26.191Z,103293.94
2023-02-11T02:08:34.843Z,103290.28
2023-02-11T02:11:02.281Z,103303.69
2023-02-11T02:13:31.483Z,103307.78
2023-02-11T02:16:00.992Z,103306.94
2023-02-11T02:18:49.183Z,103312.06
2023-02-11T02:22:02.250Z,103305.09
2023-02-11T02:24:37.678Z,103298.16
2023-02-11T02:27:32.172Z,103299.22
2023-02-11T02:30:25.812Z,103292.16
2023-02-11T02:33:02.165Z,103288.31
2023-02-11T02:35:45.919Z,103292.69
2023-02-11T02:38:28.701Z,103298.03
2023-02-11T02:41:01.329Z,103289.88
2023-02-11T02:43:30.160Z,103294.50
2023-02-11T02:46:10.434Z,103292.69
2023-02-11T02:48:36.886Z,103288.31
2023-02-11T02:51:25.176Z,103284.66
2023-02-11T02:54:15.813Z,103288.31
2023-02-11T02:56:53.447Z,103289.28
2023-02-11T02:59:31.076Z,103283.38
2023-02-11T03:02:18.138Z,103290.56
2023-02-11T03:04:44.483Z,103282.66
2023-02-11T03:07:51.212Z,103287.75
2023-02-11T03:10:23.011Z,103293.38
2023-02-11T03:12:51.688Z,103278.81
2023-02-11T03:15:20.480Z,103273.47
2023-02-11T03:17:49.750Z,103270.78
2023-02-11T03:20:18.768Z,103272.69
2023-02-11T03:23:02.209Z,103281.38
2023-02-11T03:25:34.612Z,103284.06
2023-02-11T03:28:15.758Z,103282.22
2023-02-11T03:30:49.352Z,103277.09
2023-02-11T03:33:29.237Z,103260.38
2023-02-11T03:36:00.094Z,103260.16
2023-02-11T03:38:33.471Z,103261.25
2023-02-11T03:41:04.620Z,103256.97
2023-02-11T03:43:35.624Z,103258.69
2023-02-11T03:46:03.510Z,103254.31
2023-02-11T03:48:32.903Z,103255.03
2023-02-11T03:51:05.293Z,103260.38
2023-02-11T03:53:31.676Z,103266.63
2023-02-11T03:56:02.540Z,103262.00
2023-02-11T03:58:28.953Z,103268.97
2023-02-11T04:00:55.390Z,103275.25
2023-02-11T04:03:21.858Z,103266.50
2023-02-11T04:05:48.944Z,103271.50
2023-02-11T04:08:15.417Z,103270.44
2023-02-11T04:10:41.828Z,103271.31
2023-02-11T04:13:08.239Z,103267.78
2023-02-11T04:15:34.652Z,103259.72
2023-02-11T04:18:01.948Z,103256.94
2023-02-11T04:20:28.350Z,103250.72
2023-02-11T04:22:54.783Z,103244.28
2023-02-11T04:25:21.233Z,103263.78
2023-02-11T04:27:47.644Z,103245.03
2023-02-11T04:30:14.323Z,103247.06
2023-02-11T04:32:40.759Z,103246.22
2023-02-11T04:35:07.404Z,103239.88
2023-02-11T04:37:33.985Z,103250.38
2023-02-11T04:40:00.419Z,103245.66
2023-02-11T04:42:27.136Z,103259.91
2023-02-11T04:44:53.528Z,103255.31
2023-02-11T04:47:20.018Z,103267.59
2023-02-11T04:49:46.443Z,103264.81
2023-02-11T04:52:12.869Z,103277.25
2023-02-11T04:54:39.377Z,103273.59
2023-02-11T04:57:05.762Z,103282.25
2023-02-11T04:59:32.124Z,103290.28
2023-02-11T05:01:58.476Z,103290.28
2023-02-11T05:04:24.952Z,103291.16
2023-02-11T05:06:51.434Z,103290.06
2023-02-11T05:09:18.204Z,103290.81
2023-02-11T05:11:44.637Z,103292.53
2023-02-11T05:14:11.081Z,103296.94
2023-02-11T05:16:37.570Z,103296.16
2023-02-11T05:19:04.612Z,103284.50
2023-02-11T05:21:31.166Z,103289.72
2023-02-11T05:23:58.037Z,103291.06
2023-02-11T05:26:24.455Z,103288.97
2023-02-11T05:28:50.898Z,103289.53
2023-02-11T05:31:17.506Z,103289.41
2023-02-11T05:33:44.148Z,103288.53
2023-02-11T05:36:13.309Z,103289.16
2023-02-11T05:38:40.027Z,103290.88
2023-02-11T05:41:06.753Z,103284.66
2023-02-11T05:43:35.116Z,103281.13
2023-02-11T05:46:01.653Z,103282.84
2023-02-11T05:48:28.091Z,103282.72
2023-02-11T05:50:54.451Z,103288.94
2023-02-11T05:53:20.863Z,103283.81
2023-02-11T05:55:47.330Z,103288.19
2023-02-11T05:58:13.756Z,103294.53
2023-02-11T06:00:40.224Z,103287.47
2023-02-11T06:03:06.756Z,103286.72
2023-02-11T06:05:33.201Z,103283.06
2023-02-11T06:07:59.880Z,103284.66
2023-02-11T06:10:26.985Z,103284.66
2023-02-11T06:12:53.411Z,103286.28
2023-02-11T06:15:19.863Z,103287.84
2023-02-11T06:17:46.220Z,103291.16
2023-02-11T06:20:12.684Z,103290.44
2023-02-11T06:22:39.191Z,103294.69
2023-02-11T06:25:06.003Z,103294.59
2023-02-11T06:27:32.412Z,103290.09
2023-02-11T06:29:58.808Z,103295.31
2023-02-11T06:32:43.406Z,103291.66
2023-02-11T06:35:12.424Z,103297.16
2023-02-11T06:37:39.865Z,103289.09
2023-02-11T06:40:06.960Z,103291.78
2023-02-11T06:42:34.468Z,103292.78
2023-02-11T06:45:00.872Z,103280.94
2023-02-11T06:47:27.286Z,103286.44
2023-02-11T06:49:53.672Z,103283.88
2023-02-11T06:52:20.086Z,103291.78
2023-02-11T06:54:46.571Z,103298.75
2023-02-11T06:57:12.992Z,103299.63
2023-02-11T06:59:39.386Z,103301.66
2023-02-11T07:02:05.782Z,103304.34
2023-02-11T07:04:32.268Z,103304.56
2023-02-11T07:06:58.753Z,103307.13
2023-02-11T07:09:25.204Z,103298.00
2023-02-11T07:11:51.664Z,103297.03
2023-02-11T07:14:18.239Z,103297.88
2023-02-11T07:16:44.642Z,103308.59
2023-02-11T07:19:11.086Z,103311.41
2023-02-11T07:21:37.546Z,103318.09
2023-02-11T07:24:10.744Z,103318.81
2023-02-11T07:26:37.559Z,103328.69
2023-02-11T07:29:03.962Z,103319.66
2023-02-11T07:31:31.359Z,103321.50
2023-02-11T07:33:59.990Z,103329.66
2023-02-11T07:36:27.925Z,103314.31
2023-02-11T07:38:54.408Z,103322.34
2023-02-11T07:41:23.240Z,103323.19
2023-02-11T07:43:50.215Z,103323.19
2023-02-11T07:46:23.037Z,103324.94
2023-02-11T07:48:49.581Z,103328.34
2023-02-11T07:51:22.920Z,103338.00
2023-02-11T07:53:50.382Z,103324.81
2023-02-11T07:56:18.491Z,103322.00
2023-02-11T07:58:45.038Z,103332.63
2023-02-11T08:01:14.704Z,103331.53
2023-02-11T08:03:42.679Z,103346.75
2023-02-11T08:06:11.713Z,103341.94
2023-02-11T08:08:38.346Z,103341.81
2023-02-11T08:11:13.879Z,103349.72
2023-02-11T08:13:41.229Z,103348.88
2023-02-11T08:16:08.494Z,103354.16
2023-02-11T08:18:35.460Z,103358.03
2023-02-11T08:21:09.460Z,103351.09
2023-02-11T08:23:37.453Z,103350.25
2023-02-11T08:26:05.523Z,103355.94
2023-02-11T08:28:32.194Z,103351.19
2023-02-11T08:30:58.662Z,103355.78
2023-02-11T08:33:25.249Z,103358.59
2023-02-11T08:35:51.662Z,103364.81
2023-02-11T08:38:18.032Z,103371.03
2023-02-11T08:40:44.398Z,103372.72
2023-02-11T08:43:10.755Z,103363.47
2023-02-11T08:45:37.433Z,103365.19
2023-02-11T08:48:03.991Z,103356.91
2023-02-11T08:50:30.398Z,103367.53
2023-02-11T08:52:56.799Z,103378.50
2023-02-11T08:55:23.167Z,103376.88
2023-02-11T08:57:49.559Z,103382.88
2023-02-11T09:00:16.589Z,103380.97
2023-02-11T09:02:43.099Z,103379.84
2023-02-11T09:05:09.616Z,103383.28
2023-02-11T09:07:35.979Z,103388.41
2023-02-11T09:10:02.387Z,103389.16
2023-02-11T09:12:28.813Z,103394.41
2023-02-11T09:14:55.189Z,103398.81
2023-02-11T09:17:21.572Z,103395.25
2023-02-11T09:19:47.985Z,103396.00
2023-02-11T09:22:14.355Z,103402.09
2023-02-11T09:24:40.794Z,103399.19
2023-02-11T09:27:07.303Z,103408.84
2023-02-11T09:29:33.714Z,103413.09
2023-02-11T09:32:00.283Z,103409.34
2023-02-11T09:34:26.968Z,103401.41
2023-02-11T09:36:53.400Z,103406.53
2023-02-11T09:39:20.385Z,103411.69
2023-02-11T09:42:05.393Z,103417.03
2023-02-11T09:44:34.416Z,103420.34
2023-02-11T09:47:04.771Z,103423.56
2023-02-11T09:49:40.361Z,103430.53
2023-02-11T09:52:40.892Z,103430.31
2023-02-11T09:55:38.022Z,103426.53
2023-02-11T09:58:11.865Z,103442.53
2023-02-11T10:00:44.978Z,103433.72
2023-02-11T10:03:14.436Z,103437.63
2023-02-11T10:05:52.988Z,103448.13
2023-02-11T10:08:27.377Z,103453.50
2023-02-11T10:11:04.562Z,103460.47
2023-02-11T10:13:41.472Z,103454.97
2023-02-11T10:16:30.969Z,103455.59
2023-02-11T10:19:22.088Z,103465.63
2023-02-11T10:21:58.710Z,103464.19
2023-02-11T10:24:25.394Z,103463.84
2023-02-11T10:26:51.914Z,103475.06
2023-02-11T10:29:40.531Z,103485.13
2023-02-11T10:32:21.383Z,103475.25
2023-02-11T10:34:47.975Z,103476.09
2023-02-11T10:37:14.690Z,103472.44
2023-02-11T10:39:41.383Z,103476.09
2023-02-11T10:42:12.142Z,103478.78
2023-02-11T10:44:54.861Z,103481.81
2023-02-11T10:47:24.074Z,103480.84
2023-02-11T10:49:50.695Z,103481.47
2023-02-11T10:52:24.371Z,103471.34
2023-02-11T10:55:05.452Z,103481.84
2023-02-11T10:57:34.537Z,103480.03
2023-02-11T11:00:50.341Z,103490.50
2023-02-11T11:03:23.304Z,103493.78
2023-02-11T11:06:01.929Z,103496.00
2023-02-11T11:08:48.216Z,103488.56
2023-02-11T11:11:21.636Z,103486.00
2023-02-11T11:13:53.968Z,103490.91
2023-02-11T11:16:23.650Z,103493.59
2023-02-11T11:19:09.984Z,103490.91
2023-02-11T11:21:47.218Z,103498.22
2023-02-11T11:24:31.261Z,103495.66
2023-02-11T11:27:01.763Z,103498.72
2023-02-11T11:29:35.740Z,103503.00
2023-02-11T11:32:13.078Z,103502.03
2023-02-11T11:34:44.969Z,103498.84
2023-02-11T11:37:23.795Z,103499.84
2023-02-11T11:40:10.979Z,103494.47
2023-02-11T11:42:39.118Z,103503.25
2023-02-11T11:45:22.810Z,103510.09
2023-02-11T11:47:52.348Z,103505.22
2023-02-11T11:50:39.732Z,103516.69
2023-02-11T11:53:24.992Z,103521.97
2023-02-11T11:56:36.659Z,103518.69
2023-02-11T11:59:11.152Z,103523.09
2023-02-11T12:02:18.941Z,103521.34
2023-02-11T12:05:12.586Z,103522.81
2023-02-11T12:08:03.784Z,103511.84
2023-02-11T12:11:02.659Z,103504.53
2023-02-11T12:13:49.688Z,103504.38
2023-02-11T12:16:48.118Z,103502.44
2023-02-11T12:19:24.437Z,103499.75
2023-02-11T12:22:09.356Z,103505.84
2023-02-11T12:24:59.633Z,103510.75
2023-02-11T12:27:26.000Z,103506.34
2023-02-11T12:30:01.712Z,103511.47
2023-02-11T12:32:46.940Z,103514.66
2023-02-11T12:35:16.362Z,103513.19
2023-02-11T12:38:15.966Z,103504.13
2023-02-11T12:40:49.958Z,103510.09
2023-02-11T12:43:22.670Z,103508.34
2023-02-11T12:46:04.783Z,103508.84
2023-02-11T12:48:41.171Z,103509.97
2023-02-11T12:51:28.913Z,103507.56
2023-02-11T12:54:19.734Z,103512.06
2023-02-11T12:56:48.891Z,103508.00
2023-02-11T12:59:29.560Z,103512.13
2023-02-11T13:01:57.793Z,103523.66
2023-02-11T13:04:36.518Z,103520.47
2023-02-11T13:07:10.667Z,103514.63
2023-02-11T13:09:48.905Z,103509.75
2023-02-11T13:12:34.376Z,103511.75
2023-02-11T13:15:06.536Z,103507.50
2023-02-11T13:18:00.939Z,103506.34
2023-02-11T13:20:51.632Z,103508.44
2023-02-11T13:23:53.904Z,103492.56
2023-02-11T13:26:38.233Z,103491.59
2023-02-11T13:29:30.926Z,103491.72
2023-02-11T13:32:15.797Z,103488.75
2023-02-11T13:34:42.093Z,103486.19
2023-02-11T13:37:31.699Z,103487.50
2023-02-11T13:40:07.222Z,103490.16
2023-02-11T13:42:47.448Z,103484.75
2023-02-11T13:45:28.025Z,103490.28
2023-02-11T13:47:59.764Z,103487.94
2023-02-11T13:50:27.445Z,103488.94
2023-02-11T13:53:02.415Z,103484.78
2023-02-11T13:55:29.897Z,103496.78
2023-02-11T13:58:05.548Z,103500.72
2023-02-11T14:00:35.054Z,103499.13
2023-02-11T14:03:29.102Z,103500.72
2023-02-11T14:06:32.428Z,103501.47
2023-02-11T14:09:14.046Z,103504.88
2023-02-11T14:11:43.223Z,103499.38
2023-02-11T14:14:21.693Z,103494.25
2023-02-11T14:17:03.058Z,103501.72
2023-02-11T14:19:44.136Z,103494.13
2023-02-11T14:22:11.748Z,103492.44
2023-02-11T14:24:38.168Z,103493.28
2023-02-11T14:27:10.846Z,103499.06
2023-02-11T14:30:15.016Z,103493.44
2023-02-11T14:32:56.428Z,103509.31
2023-02-11T14:35:43.767Z,103503.19
2023-02-11T14:38:40.776Z,103508.59
2023-02-11T14:41:21.804Z,103500.38
2023-02-11T14:43:52.728Z,103503.81
2023-02-11T14:46:20.922Z,103501.25
2023-02-11T14:48:50.384Z,103499.28
2023-02-11T14:51:25.764Z,103502.09
2023-02-11T14:53:59.136Z,103509.44
2023-02-11T14:56:30.999Z,103503.34
2023-02-11T14:58:58.111Z,103505.19
2023-02-11T15:01:35.092Z,103518.88
2023-02-11T15:04:03.501Z,103525.00
2023-02-11T15:06:47.184Z,103519.88
2023-02-11T15:09:17.859Z,103521.09
2023-02-11T15:11:48.359Z,103527.41
2023-02-11T15:14:25.669Z,103535.25
2023-02-11T15:16:54.199Z,103523.88
2023-02-11T15:19:32.341Z,103529.41
2023-02-11T15:22:00.597Z,103529.41
2023-02-11T15:24:32.766Z,103531.72
2023-02-11T15:27:16.132Z,103532.81
2023-02-11T15:29:49.509Z,103526.31
2023-02-11T15:32:22.045Z,103535.50
2023-02-11T15:34:50.254Z,103535.63
2023-02-11T15:37:25.685Z,103534.19
2023-02-11T15:39:53.975Z,103536.41
2023-02-11T15:42:24.042Z,103532.25
2023-02-11T15:45:08.494Z,103529.19
2023-02-11T15:47:35.449Z,103532.63
2023-02-11T15:50:02.367Z,103527.72
2023-02-11T15:52:29.412Z,103533.84
2023-02-11T15:55:01.587Z,103539.09
2023-02-11T15:57:28.648Z,103544.09
2023-02-11T16:00:04.204Z,103538.00
2023-02-11T16:02:44.951Z,103533.84
2023-02-11T16:05:33.691Z,103532.16
2023-02-11T16:08:02.200Z,103536.66
2023-02-11T16:10:31.667Z,103533.84
2023-02-11T16:13:17.094Z,103539.22
2023-02-11T16:15:58.281Z,103543.88
2023-02-11T16:18:40.258Z,103551.94
2023-02-11T16:21:15.888Z,103547.06
2023-02-11T16:23:49.071Z,103551.06
2023-02-11T16:26:29.998Z,103557.31
2023-02-11T16:29:10.619Z,103561.47
2023-02-11T16:31:40.927Z,103563.44
2023-02-11T16:34:24.991Z,103570.53
2023-02-11T16:36:52.444Z,103572.34
2023-02-11T16:39:23.635Z,103577.03
2023-02-11T16:41:51.326Z,103577.13
2023-02-11T16:44:18.224Z,103584.47
2023-02-11T16:46:44.882Z,103582.75
2023-02-11T16:49:20.372Z,103582.03
2023-02-11T16:51:49.749Z,103580.19
2023-02-11T16:54:17.465Z,103576.63
2023-02-11T16:56:44.122Z,103582.38
2023-02-11T16:59:11.883Z,103588.63
2023-02-11T17:01:40.199Z,103590.22
2023-02-11T17:04:10.530Z,103579.47
2023-02-11T17:06:37.021Z,103586.91
2023-02-11T17:09:05.643Z,103592.53
2023-02-11T17:11:32.101Z,103591.78
2023-02-11T17:13:58.546Z,103594.34
2023-02-11T17:16:25.039Z,103601.56
2023-02-11T17:18:51.716Z,103605.13
2023-02-11T17:21:18.148Z,103606.44
2023-02-11T17:23:45.920Z,103610.97
2023-02-11T17:26:12.445Z,103602.88
2023-02-11T17:28:38.898Z,103602.78
2023-02-11T17:31:09.348Z,103609.25
2023-02-11T17:33:37.702Z,103613.03
2023-02-11T17:36:06.699Z,103610.34
2023-02-11T17:38:33.962Z,103625.38
2023-02-11T17:41:02.023Z,103620.25
2023-02-11T17:43:28.514Z,103623.06
2023-02-11T17:45:55.160Z,103618.66
2023-02-11T17:48:21.696Z,103621.81
2023-02-11T17:50:48.056Z,103627.41
2023-02-11T17:53:14.731Z,103631.72
2023-02-11T17:55:41.092Z,103628.91
2023-02-11T17:58:07.605Z,103628.91
2023-02-11T18:00:34.195Z,103624.41
2023-02-11T18:03:03.677Z,103631.59
2023-02-11T18:05:37.001Z,103635.75
2023-02-11T18:08:05.116Z,103646.50
2023-02-11T18:10:33.440Z,103649.81
2023-02-11T18:13:00.998Z,103654.25
2023-02-11T18:15:27.461Z,103657.03
2023-02-11T18:17:55.154Z,103657.16
2023-02-11T18:20:21.631Z,103661.56
2023-02-11T18:22:48.116Z,103652.75
2023-02-11T18:25:15.263Z,103659.00
2023-02-11T18:27:41.934Z,103656.66
2023-02-11T18:30:15.376Z,103666.31
2023-02-11T18:32:42.031Z,103655.69
2023-02-11T18:35:14.860Z,103660.94
2023-02-11T18:37:42.690Z,103671.69
2023-02-11T18:40:10.438Z,103665.44
2023-02-11T18:42:36.868Z,103665.59
2023-02-11T18:45:05.363Z,103672.53
2023-02-11T18:47:32.333Z,103674.50
2023-02-11T18:49:58.716Z,103672.88
2023-02-11T18:52:25.176Z,103674.22
2023-02-11T18:54:52.279Z,103669.31
2023-02-11T18:57:18.685Z,103670.28
2023-02-11T18:59:45.172Z,103676.41
2023-02-11T19:02:12.009Z,103671.63
2023-02-11T19:04:38.531Z,103674.31
2023-02-11T19:07:05.055Z,103672.41
2023-02-11T19:09:31.632Z,103670.44
2023-02-11T19:11:59.826Z,103672.41
2023-02-11T19:14:31.275Z,103672.41
2023-02-11T19:16:59.240Z,103673.25
2023-02-11T19:19:28.721Z,103668.09
2023-02-11T19:21:55.990Z,103678.00
2023-02-11T19:24:23.538Z,103674.31
2023-02-11T19:26:52.076Z,103671.53
2023-02-11T19:29:18.703Z,103673.25
2023-02-11T19:31:45.540Z,103675.09
2023-02-11T19:34:14.024Z,103685.84
2023-02-11T19:36:41.036Z,103691.22
2023-02-11T19:39:07.685Z,103686.81
2023-02-11T19:41:34.455Z,103691.44
2023-02-11T19:44:02.294Z,103689.59
2023-02-11T19:46:32.025Z,103693.91
2023-02-11T19:49:00.337Z,103696.47
2023-02-11T19:51:27.190Z,103692.19
2023-02-11T19:53:53.942Z,103693.28
2023-02-11T19:56:21.000Z,103692.28
2023-02-11T19:58:47.693Z,103691.34
2023-02-11T20:01:19.964Z,103697.31
2023-02-11T20:03:51.358Z,103697.31
2023-02-11T20:06:20.840Z,103713.44
2023-02-11T20:08:47.273Z,103709.81
2023-02-11T20:11:17.472Z,103718.72
2023-02-11T20:13:44.678Z,103722.25
2023-02-11T20:16:14.413Z,103719.56
2023-02-11T20:18:41.318Z,103727.78
2023-02-11T20:21:16.110Z,103725.19
2023-02-11T20:23:44.823Z,103723.47
2023-02-11T20:26:14.509Z,103720.78
2023-02-11T20:28:41.692Z,103725.31
2023-02-11T20:31:10.920Z,103726.16
2023-02-11T20:33:38.242Z,103723.59
2023-02-11T20:36:10.530Z,103726.28
2023-02-11T20:38:37.334Z,103727.59
2023-02-11T20:41:06.892Z,103726.72
2023-02-11T20:43:34.403Z,103725.88
2023-02-11T20:46:04.366Z,103732.22
2023-02-11T20:48:31.847Z,103733.19
2023-02-11T20:51:10.127Z,103729.53
2023-02-11T20:53:43.859Z,103732.09
2023-02-11T20:56:12.075Z,103738.34
2023-02-11T20:58:39.067Z,103748.09
2023-02-11T21:01:23.411Z,103753.72
2023-02-11T21:03:52.658Z,103750.19
2023-02-11T21:06:20.707Z,103757.38
2023-02-11T21:08:47.593Z,103754.69
2023-02-11T21:11:14.674Z,103763.84
2023-02-11T21:13:42.698Z,103757.63
2023-02-11T21:16:14.727Z,103762.16
2023-02-11T21:18:41.482Z,103764.81
2023-02-11T21:21:08.095Z,103768.38
2023-02-11T21:23:35.677Z,103767.53
2023-02-11T21:26:02.292Z,103781.91
2023-02-11T21:28:28.862Z,103782.03
2023-02-11T21:30:57.045Z,103782.75
2023-02-11T21:33:25.321Z,103787.28
2023-02-11T21:35:59.419Z,103791.81
2023-02-11T21:38:26.237Z,103791.81
2023-02-11T21:40:53.038Z,103789.97
2023-02-11T21:43:20.130Z,103795.34
2023-02-11T21:45:48.621Z,103795.34
2023-02-11T21:48:16.230Z,103793.63
2023-02-11T21:50:45.503Z,103791.06
2023-02-11T21:53:12.235Z,103790.22
2023-02-11T21:55:39.496Z,103801.06
2023-02-11T21:58:06.932Z,103803.97
2023-02-11T22:00:33.767Z,103812.16
2023-02-11T22:03:00.459Z,103815.91
2023-02-11T22:05:27.280Z,103809.69
2023-02-11T22:07:53.743Z,103810.44
2023-02-11T22:10:20.227Z,103814.84
2023-02-11T22:12:46.859Z,103809.47
2023-02-11T22:15:13.383Z,103812.88
2023-02-11T22:17:39.760Z,103811.16
2023-02-11T22:20:07.250Z,103813.00
2023-02-11T22:22:33.741Z,103805.91
2023-02-11T22:25:01.789Z,103807.84
2023-02-11T22:27:28.231Z,103806.25
2023-02-11T22:29:54.713Z,103802.59
2023-02-11T22:32:21.125Z,103811.72
2023-02-11T22:34:47.502Z,103815.25
2023-02-11T22:37:15.003Z,103820.75
2023-02-11T22:39:42.631Z,103818.94
2023-02-11T22:42:09.233Z,103815.38
2023-02-11T22:44:37.195Z,103812.69
2023-02-11T22:47:03.753Z,103815.25
2023-02-11T22:49:32.340Z,103813.47
2023-02-11T22:51:59.298Z,103819.78
2023-02-11T22:54:25.777Z,103822.47
2023-02-11T22:56:52.503Z,103821.53
2023-02-11T22:59:19.738Z,103823.22
2023-02-11T23:01:46.330Z,103830.53
2023-02-11T23:04:15.781Z,103826.13
2023-02-11T23:06:42.655Z,103827.13
2023-02-11T23:09:12.158Z,103826.25
2023-02-11T23:11:39.590Z,103833.22
2023-02-11T23:14:08.513Z,103829.59
2023-02-11T23:16:35.382Z,103834.19
2023-02-11T23:19:06.138Z,103824.22
2023-02-11T23:21:35.427Z,103825.16
2023-02-11T23:24:05.405Z,103825.41
2023-02-11T23:26:31.837Z,103833.47
2023-02-11T23:28:59.276Z,103827.19
2023-02-11T23:31:29.549Z,103832.81
2023-02-11T23:33:56.534Z,103840.03
2023-02-11T23:36:23.859Z,103846.25
2023-02-11T23:38:50.944Z,103848.94
2023-02-11T23:41:17.753Z,103834.53
2023-02-11T23:43:44.536Z,103843.44
2023-02-11T23:46:11.071Z,103824.75
2023-02-11T23:48:37.822Z,103834.66
2023-02-11T23:51:04.584Z,103838.94
2023-02-11T23:53:30.950Z,103837.94
2023-02-11T23:55:57.579Z,103843.22
2023-02-11T23:58:24.354Z,103840.53
